Time;durP1;ratioP1;P1;durP2;ratioP2;P2;SDS_P1;SDS_P2;PMS_P1;PMS_P2;Temp;Humidity;BMP_temperature;BMP_pressure;BME280_temperature;BME280_humidity;BME280_pressure;Samples;Min_cycle;Max_cycle;Signal;HPM_P1;HPM_P2
2022/07/07 00:00:22;;;;;;;3.03;2.13;;;;;;;13.13;100.00;97456.13;4968646;28;20241;-61
2022/07/07 00:02:50;;;;;;;2.10;2.00;;;;;;;13.07;100.00;97459.56;4947476;28;20418;-68
2022/07/07 00:05:19;;;;;;;2.50;2.30;;;;;;;13.02;100.00;97457.47;4983112;28;20787;-58
2022/07/07 00:07:48;;;;;;;2.60;2.30;;;;;;;12.98;100.00;97456.22;4983666;28;20295;-63
2022/07/07 00:10:16;;;;;;;2.30;2.20;;;;;;;12.98;100.00;97458.06;4970272;28;21063;-61
2022/07/07 00:12:44;;;;;;;3.93;2.40;;;;;;;12.97;100.00;97462.56;4987908;28;20205;-66
2022/07/07 00:15:12;;;;;;;2.87;1.97;;;;;;;12.94;100.00;97457.63;4964076;28;20216;-63
2022/07/07 00:17:41;;;;;;;2.07;1.90;;;;;;;12.93;100.00;97455.16;4985176;28;20608;-64
2022/07/07 00:20:10;;;;;;;2.23;2.13;;;;;;;12.93;100.00;97460.50;4942483;28;23111;-62
2022/07/07 00:22:38;;;;;;;2.10;2.00;;;;;;;12.92;100.00;97459.66;4983305;28;20225;-60
2022/07/07 00:25:08;;;;;;;2.27;2.07;;;;;;;12.86;100.00;97455.91;4981206;28;20642;-66
2022/07/07 00:27:37;;;;;;;2.10;2.00;;;;;;;12.86;100.00;97450.59;4986952;28;20844;-63
2022/07/07 00:30:06;;;;;;;2.13;2.03;;;;;;;12.82;100.00;97449.34;4962615;28;20205;-69
2022/07/07 00:32:34;;;;;;;2.47;2.33;;;;;;;12.81;100.00;97450.34;4969690;28;20256;-62
2022/07/07 00:35:02;;;;;;;3.53;2.60;;;;;;;12.84;100.00;97449.16;4942810;28;20268;-66
2022/07/07 00:37:30;;;;;;;2.50;2.40;;;;;;;12.85;100.00;97453.47;4963211;28;20248;-65
2022/07/07 00:39:58;;;;;;;2.60;2.40;;;;;;;12.91;100.00;97450.03;4978843;28;20522;-66
2022/07/07 00:42:28;;;;;;;3.03;2.07;;;;;;;12.95;100.00;97448.63;4985996;28;20354;-64
2022/07/07 00:44:56;;;;;;;2.27;2.10;;;;;;;12.93;100.00;97437.34;4979155;28;20681;-65
2022/07/07 00:47:24;;;;;;;1.77;1.67;;;;;;;12.93;100.00;97440.03;4978182;28;20764;-65
2022/07/07 00:49:53;;;;;;;2.03;1.93;;;;;;;12.92;100.00;97442.88;4969654;28;20300;-69
2022/07/07 00:52:21;;;;;;;2.80;1.97;;;;;;;12.86;100.00;97439.16;4907803;28;20225;-64
2022/07/07 00:54:53;;;;;;;2.20;2.00;;;;;;;12.79;100.00;97438.28;4975334;28;20324;-64
2022/07/07 00:57:21;;;;;;;2.87;1.97;;;;;;;12.75;100.00;97429.84;4976529;28;20268;-63
2022/07/07 01:00:00;;;;;;;1.77;1.70;;;;;;;12.72;100.00;97428.41;4982805;28;20204;-65
2022/07/07 01:02:30;;;;;;;1.90;1.80;;;;;;;12.72;100.00;97435.56;4980748;28;20341;-63
2022/07/07 01:05:00;;;;;;;1.73;1.63;;;;;;;12.66;100.00;97429.16;4970318;28;20236;-62
2022/07/07 01:07:28;;;;;;;2.03;1.93;;;;;;;12.63;100.00;97423.41;4935347;28;20256;-66
2022/07/07 01:09:57;;;;;;;2.47;2.00;;;;;;;12.62;100.00;97438.53;4980053;28;20197;-70
2022/07/07 01:12:26;;;;;;;1.97;1.87;;;;;;;12.60;100.00;97445.88;4972763;28;20635;-63
2022/07/07 01:14:54;;;;;;;2.07;1.97;;;;;;;12.59;100.00;97444.22;4980268;28;20299;-67
2022/07/07 01:17:24;;;;;;;2.27;2.07;;;;;;;12.55;100.00;97448.28;4985137;28;20248;-65
2022/07/07 01:19:52;;;;;;;2.20;2.10;;;;;;;12.46;100.00;97444.91;4971303;28;21013;-62
2022/07/07 01:22:21;;;;;;;2.33;1.80;;;;;;;12.41;100.00;97447.31;4936027;28;21564;-65
2022/07/07 01:24:51;;;;;;;2.10;2.00;;;;;;;12.35;100.00;97442.78;4981469;28;20291;-65
2022/07/07 01:27:20;;;;;;;2.03;1.90;;;;;;;12.35;100.00;97448.09;4980764;28;20434;-62
2022/07/07 01:29:50;;;;;;;2.10;2.00;;;;;;;12.32;100.00;97441.34;4969691;28;20307;-65
2022/07/07 01:32:18;;;;;;;8.30;2.47;;;;;;;12.30;100.00;97441.50;4982017;28;20473;-64
2022/07/07 01:34:48;;;;;;;2.90;2.40;;;;;;;12.35;100.00;97442.78;4988827;28;20351;-65
2022/07/07 01:37:16;;;;;;;2.00;1.90;;;;;;;12.41;100.00;97442.84;4967269;28;20236;-66
2022/07/07 01:39:44;;;;;;;4.67;2.03;;;;;;;12.46;100.00;97444.91;4942917;28;20294;-61
2022/07/07 01:42:14;;;;;;;2.87;2.60;;;;;;;12.52;100.00;97441.53;4982656;28;20383;-65
2022/07/07 01:44:43;;;;;;;2.57;2.37;;;;;;;12.61;100.00;97442.19;4974071;28;20713;-65
2022/07/07 01:47:13;;;;;;;3.33;1.90;;;;;;;12.69;100.00;97442.09;4987970;28;20536;-65
2022/07/07 01:49:41;;;;;;;1.97;1.83;;;;;;;12.74;100.00;97439.69;4986313;28;20229;-63
2022/07/07 01:52:09;;;;;;;1.87;1.77;;;;;;;12.80;100.00;97439.91;4966893;28;20488;-62
2022/07/07 01:54:37;;;;;;;2.20;2.00;;;;;;;12.79;100.00;97443.59;4943660;28;20210;-63
2022/07/07 01:57:06;;;;;;;2.30;2.07;;;;;;;12.77;100.00;97440.31;4986772;28;20244;-65
2022/07/07 01:59:37;;;;;;;1.80;1.70;;;;;;;12.80;100.00;97437.25;4968877;28;20264;-61
2022/07/07 02:02:05;;;;;;;2.10;2.00;;;;;;;12.80;100.00;97442.59;4984456;28;21631;-56
2022/07/07 02:04:33;;;;;;;2.23;2.13;;;;;;;12.81;100.00;97437.06;4985649;28;20299;-65
2022/07/07 02:07:01;;;;;;;4.00;1.97;;;;;;;12.88;100.00;97442.44;4968361;28;20225;-67
2022/07/07 02:09:29;;;;;;;2.10;2.00;;;;;;;12.93;100.00;97434.69;4988071;28;20225;-63
2022/07/07 02:11:57;;;;;;;1.83;1.77;;;;;;;12.97;100.00;97435.94;4937316;28;20428;-65
2022/07/07 02:14:25;;;;;;;1.90;1.80;;;;;;;12.96;100.00;97434.31;4987984;28;20248;-65
2022/07/07 02:16:56;;;;;;;2.20;2.10;;;;;;;12.95;100.00;97435.31;4983195;28;20210;-68
2022/07/07 02:19:24;;;;;;;3.53;2.37;;;;;;;12.94;100.00;97436.34;4990179;28;20444;-62
2022/07/07 02:21:52;;;;;;;2.40;2.30;;;;;;;12.81;100.00;97431.75;4967001;28;20248;-64
2022/07/07 02:24:20;;;;;;;2.63;2.50;;;;;;;12.74;100.00;97431.69;4983227;28;20446;-62
2022/07/07 02:26:48;;;;;;;2.73;2.53;;;;;;;12.70;100.00;97430.44;4940451;28;20306;-66
2022/07/07 02:29:16;;;;;;;3.73;2.60;;;;;;;12.59;100.00;97423.81;4968748;28;22418;-65
2022/07/07 02:31:44;;;;;;;3.30;3.00;;;;;;;12.59;100.00;97422.97;4989431;28;20597;-62
2022/07/07 02:34:14;;;;;;;2.77;2.57;;;;;;;12.63;100.00;97428.72;4981764;28;20396;-69
2022/07/07 02:36:42;;;;;;;2.73;2.63;;;;;;;12.64;100.00;97422.41;4968771;28;20343;-67
2022/07/07 02:39:10;;;;;;;2.80;2.60;;;;;;;12.61;100.00;97420.13;4963943;28;20308;-66
2022/07/07 02:41:38;;;;;;;2.83;2.73;;;;;;;12.57;100.00;97419.69;4986929;28;20296;-69
2022/07/07 02:44:47;;;;;;;3.13;2.90;;;;;;;12.56;100.00;97426.00;4929115;28;20585;-66
2022/07/07 02:47:15;;;;;;;3.47;3.33;;;;;;;12.54;100.00;97417.41;4986869;28;22595;-62
2022/07/07 02:49:45;;;;;;;3.07;2.93;;;;;;;12.59;100.00;97415.00;4987423;28;20456;-64
2022/07/07 02:52:13;;;;;;;2.93;2.73;;;;;;;12.62;100.00;97411.94;4935506;28;20950;-67
2022/07/07 02:54:42;;;;;;;3.37;2.80;;;;;;;12.62;100.00;97417.25;4989958;28;20752;-66
2022/07/07 02:57:10;;;;;;;2.70;2.60;;;;;;;12.57;100.00;97411.69;4982947;28;20794;-63
2022/07/07 02:59:38;;;;;;;3.17;2.97;;;;;;;12.67;100.00;97420.16;4900483;28;20215;-64
2022/07/07 03:02:07;;;;;;;2.80;2.60;;;;;;;12.70;100.00;97418.97;4972280;28;20228;-69
2022/07/07 03:04:35;;;;;;;2.40;2.30;;;;;;;12.74;100.00;97414.91;4981305;28;20237;-64
2022/07/07 03:07:05;;;;;;;2.27;2.17;;;;;;;12.78;100.00;97418.03;4983079;28;20220;-66
2022/07/07 03:09:34;;;;;;;3.23;2.50;;;;;;;12.78;100.00;97412.69;4973136;28;20455;-64
2022/07/07 03:12:03;;;;;;;2.40;2.20;;;;;;;12.76;100.00;97404.09;4977693;28;20279;-67
2022/07/07 03:14:32;;;;;;;2.40;2.23;;;;;;;12.70;100.00;97403.03;4919191;28;25738;-64
2022/07/07 03:17:00;;;;;;;3.63;2.27;;;;;;;12.80;100.00;97408.00;4977765;28;20240;-64
2022/07/07 03:19:29;;;;;;;2.47;2.27;;;;;;;12.82;100.00;97412.09;4981300;28;20924;-65
2022/07/07 03:21:57;;;;;;;2.33;2.13;;;;;;;12.90;100.00;97415.66;4984028;28;20555;-65
2022/07/07 03:24:29;;;;;;;2.20;2.10;;;;;;;12.89;100.00;97420.16;4956355;28;20895;-66
2022/07/07 03:26:58;;;;;;;2.10;2.00;;;;;;;12.87;100.00;97415.00;4980639;28;20617;-62
2022/07/07 03:29:27;;;;;;;2.23;2.10;;;;;;;12.89;100.00;97412.16;4983634;28;20283;-62
2022/07/07 03:31:55;;;;;;;2.50;2.27;;;;;;;12.86;100.00;97410.69;4935210;28;20429;-66
2022/07/07 03:34:24;;;;;;;2.33;2.23;;;;;;;12.84;100.00;97402.09;4981370;28;20464;-61
2022/07/07 03:36:52;;;;;;;3.13;1.87;;;;;;;12.85;100.00;97414.38;4991844;28;21127;-62
2022/07/07 03:39:20;;;;;;;2.10;2.00;;;;;;;12.91;100.00;97406.66;4936006;28;20209;-61
2022/07/07 03:41:50;;;;;;;2.50;2.30;;;;;;;12.96;100.00;97402.41;4985496;28;20553;-63
2022/07/07 03:44:18;;;;;;;2.20;2.10;;;;;;;13.00;100.00;97401.00;4983635;28;20406;-61
2022/07/07 03:46:47;;;;;;;2.47;2.27;;;;;;;13.08;100.00;97402.69;4937550;28;20213;-56
2022/07/07 03:49:15;;;;;;;2.90;2.27;;;;;;;13.11;100.00;97402.28;4978254;28;20547;-62
2022/07/07 03:51:43;;;;;;;2.50;2.40;;;;;;;13.14;100.00;97403.75;4987203;28;20689;-63
2022/07/07 03:54:12;;;;;;;1.93;1.83;;;;;;;13.21;100.00;97401.97;4933553;28;20294;-61
2022/07/07 03:56:41;;;;;;;2.37;2.27;;;;;;;13.26;100.00;97404.84;4987179;28;20813;-62
2022/07/07 03:59:10;;;;;;;3.17;2.97;;;;;;;13.28;100.00;97399.34;4983476;28;20260;-58
2022/07/07 04:01:44;;;;;;;2.87;2.77;;;;;;;13.27;100.00;97411.81;4937688;28;20686;-51
2022/07/07 04:04:13;;;;;;;3.20;3.00;;;;;;;13.30;100.00;97406.09;4983696;28;20237;-60
2022/07/07 04:06:41;;;;;;;2.43;2.30;;;;;;;13.31;100.00;97414.91;4984800;28;20649;-62
2022/07/07 04:09:10;;;;;;;2.33;2.23;;;;;;;13.22;100.00;97408.91;4959521;28;20268;-61
2022/07/07 04:11:38;;;;;;;2.43;2.10;;;;;;;13.27;100.00;97411.00;4987229;28;20263;-61
2022/07/07 04:14:06;;;;;;;2.87;2.57;;;;;;;13.29;100.00;97406.31;4986566;28;20213;-60
2022/07/07 04:16:36;;;;;;;2.47;2.37;;;;;;;13.30;100.00;97414.06;4939087;28;20509;-61
2022/07/07 04:19:04;;;;;;;2.27;2.17;;;;;;;13.36;100.00;97403.66;4949758;28;20291;-62
2022/07/07 04:21:33;;;;;;;2.57;2.47;;;;;;;13.45;100.00;97408.66;4984009;28;20233;-63
2022/07/07 04:24:01;;;;;;;2.37;2.27;;;;;;;13.55;100.00;97412.81;4943688;28;20462;-59
2022/07/07 04:26:29;;;;;;;2.20;2.07;;;;;;;13.67;100.00;97407.75;4983529;28;20275;-64
2022/07/07 04:28:58;;;;;;;2.20;2.10;;;;;;;13.80;100.00;97410.44;4984467;28;20217;-65
2022/07/07 04:31:26;;;;;;;3.93;2.20;;;;;;;13.92;100.00;97407.22;4936031;28;20236;-64
2022/07/07 04:33:56;;;;;;;2.40;2.00;;;;;;;13.99;100.00;97408.06;4984228;28;20371;-62
2022/07/07 04:36:24;;;;;;;2.50;2.33;;;;;;;13.97;100.00;97407.44;4987548;28;20726;-60
2022/07/07 04:38:52;;;;;;;2.30;2.10;;;;;;;13.87;100.00;97413.97;4962549;28;21052;-63
2022/07/07 04:41:20;;;;;;;4.37;2.37;;;;;;;13.79;100.00;97414.13;4961077;28;20217;-64
2022/07/07 04:43:49;;;;;;;2.87;2.60;;;;;;;13.66;100.00;97419.41;4988912;28;20375;-62
2022/07/07 04:46:17;;;;;;;2.53;2.07;;;;;;;13.65;100.00;97410.63;4983998;28;20617;-65
2022/07/07 04:48:46;;;;;;;4.63;2.50;;;;;;;13.73;100.00;97420.25;4940561;28;20472;-64
2022/07/07 04:51:16;;;;;;;5.87;3.10;;;;;;;13.82;100.00;97415.59;4986616;28;20224;-62
2022/07/07 04:53:44;;;;;;;2.83;2.63;;;;;;;13.85;100.00;97410.69;4961660;28;20344;-64
2022/07/07 04:56:13;;;;;;;2.50;2.30;;;;;;;13.84;100.00;97414.38;4961653;28;20213;-62
2022/07/07 04:58:41;;;;;;;2.93;2.60;;;;;;;13.87;100.00;97400.66;4980758;28;20286;-60
2022/07/07 05:01:10;;;;;;;4.27;3.20;;;;;;;13.82;100.00;97407.59;4978035;28;20275;-61
2022/07/07 05:03:38;;;;;;;4.57;3.10;;;;;;;13.81;100.00;97409.44;4914229;28;20299;-62
2022/07/07 05:06:07;;;;;;;3.07;2.87;;;;;;;13.70;100.00;97408.19;4925770;28;20979;-64
2022/07/07 05:08:37;;;;;;;3.83;2.63;;;;;;;13.64;100.00;97411.63;4985237;28;20224;-62
2022/07/07 05:11:05;;;;;;;3.47;3.27;;;;;;;13.54;100.00;97411.16;4983104;28;20450;-63
2022/07/07 05:13:33;;;;;;;3.80;3.50;;;;;;;13.45;100.00;97413.19;4983068;28;20272;-60
2022/07/07 05:16:02;;;;;;;3.37;3.07;;;;;;;13.41;100.00;97420.69;4960321;28;21973;-57
2022/07/07 05:18:31;;;;;;;3.70;3.50;;;;;;;13.52;100.00;97423.84;4984949;28;20229;-64
2022/07/07 05:20:59;;;;;;;3.70;3.17;;;;;;;13.64;100.00;97418.78;4909298;28;21357;-62
2022/07/07 05:23:27;;;;;;;5.40;4.00;;;;;;;13.68;100.00;97414.72;4989129;28;20656;-62
2022/07/07 05:25:58;;;;;;;3.40;3.10;;;;;;;13.69;100.00;97411.03;4979922;28;20484;-62
2022/07/07 05:28:26;;;;;;;4.20;3.80;;;;;;;13.71;100.00;97401.84;4983419;28;20300;-62
2022/07/07 05:30:54;;;;;;;3.63;3.33;;;;;;;13.63;100.00;97407.31;4984323;28;20505;-65
2022/07/07 05:33:23;;;;;;;3.43;3.23;;;;;;;13.69;100.00;97411.03;4984165;28;20262;-64
2022/07/07 05:35:51;;;;;;;3.53;3.23;;;;;;;13.75;100.00;97411.06;4959368;28;20204;-64
2022/07/07 05:38:26;;;;;;;3.40;3.20;;;;;;;13.83;100.00;97407.41;4937787;28;20224;-63
2022/07/07 05:40:54;;;;;;;5.23;3.33;;;;;;;13.92;100.00;97409.91;4983217;28;20206;-62
2022/07/07 05:43:24;;;;;;;3.50;3.30;;;;;;;13.87;100.00;97413.16;4985020;28;20819;-63
2022/07/07 05:45:53;;;;;;;3.70;3.40;;;;;;;13.86;100.00;97411.50;4981615;28;20240;-63
2022/07/07 05:48:21;;;;;;;3.60;3.30;;;;;;;13.93;100.00;97412.34;4986115;28;20505;-57
2022/07/07 05:50:49;;;;;;;3.90;3.60;;;;;;;13.96;100.00;97405.81;4956957;28;20745;-58
2022/07/07 05:53:18;;;;;;;3.80;3.43;;;;;;;13.97;100.00;97408.25;4937219;28;20224;-61
2022/07/07 05:55:46;;;;;;;3.80;3.50;;;;;;;13.89;100.00;97409.28;4982103;28;20297;-62
2022/07/07 05:58:14;;;;;;;4.40;3.97;;;;;;;13.89;100.00;97413.75;4985069;28;20252;-62
2022/07/07 06:00:44;;;;;;;3.70;3.40;;;;;;;14.06;100.00;97411.56;4980557;28;20259;-63
2022/07/07 06:03:12;;;;;;;5.33;3.70;;;;;;;14.25;100.00;97411.84;4984991;28;20236;-63
2022/07/07 06:05:41;;;;;;;3.90;3.53;;;;;;;14.17;100.00;97408.31;4971038;28;20289;-67
2022/07/07 06:08:10;;;;;;;3.63;3.30;;;;;;;14.25;100.00;97407.31;4981306;28;20299;-62
2022/07/07 06:10:38;;;;;;;3.63;3.43;;;;;;;14.31;100.00;97406.50;4935790;28;20287;-63
2022/07/07 06:13:07;;;;;;;3.60;3.30;;;;;;;14.37;100.00;97406.69;4987497;28;20423;-63
2022/07/07 06:15:35;;;;;;;4.23;3.83;;;;;;;14.47;100.00;97405.28;4984283;28;21376;-63
2022/07/07 06:18:05;;;;;;;3.40;3.20;;;;;;;14.57;100.00;97407.56;4981490;28;20264;-63
2022/07/07 06:20:37;;;;;;;6.17;3.60;;;;;;;14.58;100.00;97408.38;4988184;28;20201;-63
2022/07/07 06:23:05;;;;;;;4.00;3.77;;;;;;;14.54;100.00;97412.47;4962030;28;20307;-63
2022/07/07 06:25:34;;;;;;;3.93;3.60;;;;;;;14.61;100.00;97410.66;4936950;28;20324;-58
2022/07/07 06:28:03;;;;;;;3.70;3.50;;;;;;;14.71;100.00;97407.59;4984899;28;20845;-66
2022/07/07 06:30:31;;;;;;;4.50;4.00;;;;;;;14.79;100.00;97406.56;4988027;28;20229;-67
2022/07/07 06:33:00;;;;;;;4.17;3.90;;;;;;;14.65;100.00;97403.88;4982785;28;20469;-63
2022/07/07 06:35:29;;;;;;;3.70;3.47;;;;;;;14.70;100.00;97405.91;4988937;28;20221;-63
2022/07/07 06:37:58;;;;;;;4.83;3.80;;;;;;;14.85;100.00;97411.06;4962097;28;20452;-62
2022/07/07 06:40:26;;;;;;;3.43;3.23;;;;;;;14.90;100.00;97404.09;4938615;28;20212;-62
2022/07/07 06:42:55;;;;;;;4.10;3.80;;;;;;;14.92;100.00;97414.56;4985761;28;20216;-62
2022/07/07 06:45:25;;;;;;;5.37;3.63;;;;;;;15.05;100.00;97403.91;4987544;28;20348;-65
2022/07/07 06:47:53;;;;;;;3.87;3.57;;;;;;;15.00;100.00;97405.53;4981739;28;20354;-65
2022/07/07 06:50:25;;;;;;;4.73;3.47;;;;;;;15.07;100.00;97411.69;4988234;28;20268;-65
2022/07/07 06:52:55;;;;;;;3.80;3.50;;;;;;;15.12;100.00;97401.19;4972646;28;20508;-64
2022/07/07 06:55:23;;;;;;;3.83;3.47;;;;;;;15.08;100.00;97401.84;4988198;28;20236;-63
2022/07/07 06:57:52;;;;;;;5.90;3.67;;;;;;;15.08;100.00;97402.63;4936407;28;20501;-63
2022/07/07 07:00:20;;;;;;;4.77;3.43;;;;;;;15.24;100.00;97406.72;4986600;28;20241;-62
2022/07/07 07:02:49;;;;;;;4.20;3.80;;;;;;;15.43;100.00;97407.69;4984949;28;20206;-59
2022/07/07 07:05:18;;;;;;;4.33;3.93;;;;;;;15.46;100.00;97407.28;4983921;28;20722;-65
2022/07/07 07:07:46;;;;;;;4.33;3.97;;;;;;;15.62;100.00;97408.66;4974452;28;20651;-62
2022/07/07 07:10:16;;;;;;;4.23;3.93;;;;;;;15.89;100.00;97403.25;4986330;28;20216;-62
2022/07/07 07:12:44;;;;;;;3.60;3.20;;;;;;;16.42;100.00;97406.66;4940178;28;20252;-62
2022/07/07 07:15:12;;;;;;;4.90;3.83;;;;;;;17.09;100.00;97402.66;4934221;28;20596;-61
2022/07/07 07:17:42;;;;;;;3.73;3.53;;;;;;;17.33;100.00;97400.16;4979811;28;20257;-62
2022/07/07 07:20:18;;;;;;;3.93;3.70;;;;;;;17.83;100.00;97407.22;4983739;28;20349;-64
2022/07/07 07:22:46;;;;;;;3.90;3.60;;;;;;;17.93;100.00;97404.81;4986160;28;20297;-62
2022/07/07 07:25:17;;;;;;;4.83;3.77;;;;;;;18.04;100.00;97402.47;4969539;28;20525;-61
2022/07/07 07:27:45;;;;;;;3.50;3.30;;;;;;;17.79;100.00;97398.00;4986726;28;20407;-61
2022/07/07 07:30:15;;;;;;;4.40;4.07;;;;;;;17.79;100.00;97403.34;4939475;28;20247;-63
2022/07/07 07:32:44;;;;;;;8.63;3.53;;;;;;;17.93;100.00;97406.69;4984854;28;20243;-66
2022/07/07 07:35:12;;;;;;;3.73;3.53;;;;;;;17.64;100.00;97390.34;4977615;28;20464;-62
2022/07/07 07:37:40;;;;;;;4.03;3.80;;;;;;;17.58;100.00;97394.72;4984422;28;20354;-64
2022/07/07 07:40:10;;;;;;;3.90;3.50;;;;;;;17.33;100.00;97406.34;4970406;28;21064;-63
2022/07/07 07:42:40;;;;;;;4.00;3.77;;;;;;;17.36;100.00;97408.56;4986229;28;20694;-61
2022/07/07 07:45:12;;;;;;;4.77;4.47;;;;;;;17.38;100.00;97412.88;4940899;28;20221;-62
2022/07/07 07:47:42;;;;;;;3.97;3.77;;;;;;;17.47;100.00;97412.38;4985410;28;20231;-65
2022/07/07 07:50:12;;;;;;;3.77;3.47;;;;;;;17.28;100.00;97410.72;4983697;28;20201;-64
2022/07/07 07:52:41;;;;;;;6.37;4.00;;;;;;;17.40;100.00;97403.56;4984127;28;20273;-67
2022/07/07 07:55:12;;;;;;;4.37;4.00;;;;;;;17.50;100.00;97403.06;4968693;28;20241;-62
2022/07/07 07:57:42;;;;;;;3.90;3.60;;;;;;;17.39;100.00;97399.25;4985947;28;20339;-62
2022/07/07 08:00:12;;;;;;;4.30;3.60;;;;;;;17.46;100.00;97401.88;4942236;28;20737;-64
2022/07/07 08:02:41;;;;;;;3.47;3.27;;;;;;;17.63;100.00;97400.25;4985144;28;20284;-60
2022/07/07 08:05:11;;;;;;;4.00;3.37;;;;;;;17.72;100.00;97406.09;4982768;28;20324;-65
2022/07/07 08:07:40;;;;;;;4.47;3.97;;;;;;;17.55;100.00;97408.56;4984737;28;20895;-61
2022/07/07 08:10:09;;;;;;;3.63;3.40;;;;;;;17.48;100.00;97399.78;4970306;28;20212;-66
2022/07/07 08:12:38;;;;;;;5.30;3.37;;;;;;;17.48;100.00;97397.94;4984670;28;20661;-62
2022/07/07 08:15:09;;;;;;;4.03;3.73;;;;;;;17.41;100.00;97401.72;4981384;28;20233;-63
2022/07/07 08:17:38;;;;;;;2.97;2.80;;;;;;;17.34;100.00;97401.78;4940615;28;20718;-61
2022/07/07 08:20:07;;;;;;;3.87;3.10;;;;;;;17.25;100.00;97401.28;4983648;28;20633;-63
2022/07/07 08:22:35;;;;;;;3.57;3.27;;;;;;;17.49;100.00;97398.75;4984891;28;20465;-67
2022/07/07 08:25:04;;;;;;;3.93;3.50;;;;;;;17.64;100.00;97393.00;4983214;28;20533;-63
2022/07/07 08:27:32;;;;;;;3.37;3.17;;;;;;;17.56;100.00;97388.78;4971207;28;20318;-63
2022/07/07 08:30:01;;;;;;;4.23;3.40;;;;;;;17.33;100.00;97390.28;4982358;28;20212;-64
2022/07/07 08:32:30;;;;;;;3.83;3.53;;;;;;;17.24;100.00;97391.63;4942898;28;21227;-63
2022/07/07 08:34:59;;;;;;;3.33;3.03;;;;;;;17.17;100.00;97396.19;4981753;28;20634;-63
2022/07/07 08:37:27;;;;;;;3.70;3.50;;;;;;;17.13;100.00;97395.84;4981804;28;20224;-64
2022/07/07 08:39:55;;;;;;;3.73;3.53;;;;;;;17.06;100.00;97400.44;4986479;28;20209;-61
2022/07/07 08:42:24;;;;;;;3.30;3.10;;;;;;;17.00;100.00;97403.97;4967531;28;20734;-58
2022/07/07 08:44:53;;;;;;;2.80;2.67;;;;;;;16.75;100.00;97410.94;4985974;28;20232;-63
2022/07/07 08:47:21;;;;;;;3.13;2.90;;;;;;;16.37;100.00;97435.09;4983241;28;20859;-63
2022/07/07 08:49:51;;;;;;;3.13;2.90;;;;;;;15.30;100.00;97437.91;4940000;28;20218;-63
2022/07/07 08:52:19;;;;;;;3.60;3.30;;;;;;;14.51;100.00;97420.88;4978721;28;20749;-65
2022/07/07 08:54:49;;;;;;;4.00;3.63;;;;;;;14.28;100.00;97436.22;4986567;28;20236;-64
2022/07/07 08:57:17;;;;;;;4.63;4.23;;;;;;;14.17;100.00;97439.47;4966972;28;21061;-62
2022/07/07 08:59:45;;;;;;;3.90;3.60;;;;;;;14.21;100.00;97446.03;4983806;28;20347;-64
2022/07/07 09:02:13;;;;;;;4.50;4.20;;;;;;;14.27;100.00;97450.56;4983543;28;20771;-61
2022/07/07 09:04:42;;;;;;;4.43;4.00;;;;;;;14.44;100.00;97445.69;4943179;28;20269;-64
2022/07/07 09:07:11;;;;;;;4.43;3.83;;;;;;;14.47;100.00;97445.28;4981126;28;20267;-63
2022/07/07 09:09:42;;;;;;;4.57;4.30;;;;;;;14.58;100.00;97429.69;4986353;28;20284;-63
2022/07/07 09:12:12;;;;;;;4.57;4.27;;;;;;;14.84;100.00;97441.44;4982942;28;20796;-60
2022/07/07 09:14:41;;;;;;;4.53;4.13;;;;;;;14.94;100.00;97430.38;4972117;28;20298;-64
2022/07/07 09:17:28;;;;;;;4.87;4.57;;;;;;;14.98;100.00;97437.78;4986364;28;20497;-61
2022/07/07 09:20:02;;;;;;;4.57;4.27;;;;;;;15.25;100.00;97445.72;4944278;28;20429;-63
2022/07/07 09:22:48;;;;;;;4.37;4.17;;;;;;;15.42;100.00;97439.97;4932317;28;20209;-64
2022/07/07 09:25:17;;;;;;;4.90;4.50;;;;;;;15.61;100.00;97433.75;4984463;28;20232;-61
2022/07/07 09:27:56;;;;;;;5.00;4.60;;;;;;;15.69;100.00;97438.03;4969682;28;20632;-63
2022/07/07 09:30:29;;;;;;;4.80;4.50;;;;;;;15.75;100.00;97439.06;4985466;28;20233;-64
2022/07/07 09:32:58;;;;;;;5.03;4.63;;;;;;;15.74;100.00;97448.91;4967400;28;20340;-63
2022/07/07 09:38:16;;;;;;;4.70;4.40;;;;;;;15.69;100.00;97451.41;4985628;28;20250;-65
2022/07/07 09:41:03;;;;;;;4.23;3.93;;;;;;;15.51;100.00;97443.22;4979305;28;20365;-64
2022/07/07 09:43:33;;;;;;;5.63;5.17;;;;;;;15.24;100.00;97443.28;4983774;28;20197;-64
2022/07/07 09:46:23;;;;;;;4.97;4.67;;;;;;;15.15;100.00;97442.66;4983172;28;20535;-62
2022/07/07 09:48:54;;;;;;;5.17;4.77;;;;;;;15.05;100.00;97443.91;4979100;28;20229;-63
2022/07/07 09:51:32;;;;;;;6.43;5.20;;;;;;;14.86;100.00;97450.91;4961654;28;20558;-65
2022/07/07 09:54:05;;;;;;;5.47;4.93;;;;;;;14.87;100.00;97454.38;4983586;28;20571;-63
2022/07/07 09:56:35;;;;;;;5.43;5.00;;;;;;;14.92;100.00;97457.25;4984198;28;20213;-54
2022/07/07 09:59:06;;;;;;;5.70;5.40;;;;;;;14.99;100.00;97450.09;4985954;28;20808;-62
2022/07/07 10:01:35;;;;;;;5.10;4.80;;;;;;;15.06;100.00;97458.06;4983245;28;20197;-64
2022/07/07 10:04:05;;;;;;;5.77;5.37;;;;;;;15.13;100.00;97452.72;4971558;28;20291;-62
2022/07/07 10:06:35;;;;;;;5.20;4.80;;;;;;;15.29;100.00;97454.97;4941638;28;22479;-62
2022/07/07 10:09:07;;;;;;;5.30;4.90;;;;;;;15.48;100.00;97461.28;4988246;28;20678;-62
2022/07/07 10:11:39;;;;;;;5.07;4.73;;;;;;;15.72;100.00;97460.81;4984972;28;20912;-61
2022/07/07 10:14:15;;;;;;;5.23;4.83;;;;;;;15.93;100.00;97465.13;4986252;28;20317;-63
2022/07/07 10:16:44;;;;;;;5.47;4.97;;;;;;;16.05;100.00;97467.94;4982087;28;20207;-62
2022/07/07 10:19:15;;;;;;;4.60;4.20;;;;;;;16.14;100.00;97464.00;4974022;28;20232;-66
2022/07/07 10:21:45;;;;;;;4.70;4.20;;;;;;;16.14;100.00;97469.34;4985323;28;20418;-62
2022/07/07 10:24:16;;;;;;;4.70;4.40;;;;;;;16.14;100.00;97474.69;4944632;28;20726;-61
2022/07/07 10:26:49;;;;;;;4.57;4.37;;;;;;;16.06;100.00;97478.41;4985973;28;20528;-62
2022/07/07 10:29:18;;;;;;;4.87;4.53;;;;;;;15.99;100.00;97477.63;4986312;28;20197;-63
2022/07/07 10:31:52;;;;;;;5.23;4.90;;;;;;;15.91;100.00;97476.00;4984011;28;20201;-65
2022/07/07 10:34:20;;;;;;;6.57;5.30;;;;;;;15.93;100.00;97474.97;4972037;28;20270;-65
2022/07/07 10:37:03;;;;;;;6.20;5.37;;;;;;;16.05;100.00;97482.13;4985181;28;20973;-62
2022/07/07 10:39:36;;;;;;;5.60;5.30;;;;;;;15.98;100.00;97470.66;4939162;28;20244;-65
2022/07/07 10:42:07;;;;;;;5.43;4.93;;;;;;;15.81;100.00;97470.25;4990533;28;20686;-64
2022/07/07 10:44:38;;;;;;;5.70;5.37;;;;;;;15.55;100.00;97465.81;4985679;28;20740;-64
2022/07/07 10:47:30;;;;;;;7.23;5.73;;;;;;;15.40;100.00;97480.22;4987918;28;20738;-64
2022/07/07 10:49:59;;;;;;;5.90;5.50;;;;;;;15.31;100.00;97470.78;4972689;28;20304;-63
2022/07/07 10:52:29;;;;;;;5.53;5.17;;;;;;;15.27;100.00;97464.22;4955098;28;20221;-66
2022/07/07 10:55:02;;;;;;;5.90;5.50;;;;;;;15.28;100.00;97477.34;4983734;28;20217;-65
2022/07/07 10:57:40;;;;;;;5.40;5.00;;;;;;;15.27;100.00;97475.69;4983580;28;21131;-63
2022/07/07 11:00:11;;;;;;;6.57;5.93;;;;;;;15.25;100.00;97484.97;4985592;28;20292;-62
2022/07/07 11:02:42;;;;;;;5.63;5.20;;;;;;;15.03;100.00;97472.66;4981701;28;20304;-62
2022/07/07 11:05:28;;;;;;;6.53;6.10;;;;;;;14.99;100.00;97468.75;4972194;28;20473;-61
2022/07/07 11:08:21;;;;;;;5.80;5.37;;;;;;;14.85;100.00;97459.09;4988352;28;20220;-66
2022/07/07 11:10:54;;;;;;;6.63;6.23;;;;;;;14.73;100.00;97464.22;4967745;28;20426;-60
2022/07/07 11:13:29;;;;;;;7.50;6.93;;;;;;;14.53;100.00;97458.81;4982870;28;20825;-65
2022/07/07 11:16:15;;;;;;;6.73;6.23;;;;;;;14.50;100.00;97462.72;4986899;28;20216;-64
2022/07/07 11:18:50;;;;;;;8.50;6.67;;;;;;;14.37;100.00;97465.34;4968557;28;21007;-62
2022/07/07 11:21:18;;;;;;;6.60;6.10;;;;;;;14.37;100.00;97466.19;4987654;28;20271;-63
2022/07/07 11:23:49;;;;;;;6.73;6.33;;;;;;;14.36;100.00;97475.19;4943316;28;20767;-64
2022/07/07 11:26:22;;;;;;;7.20;6.60;;;;;;;14.36;100.00;97471.69;4984560;28;20460;-64
2022/07/07 11:28:51;;;;;;;7.63;6.87;;;;;;;14.35;100.00;97478.06;4933921;28;20263;-61
2022/07/07 11:31:20;;;;;;;8.30;7.70;;;;;;;14.33;100.00;97481.75;4972537;28;20304;-64
2022/07/07 11:33:53;;;;;;;8.37;7.43;;;;;;;14.46;100.00;97478.28;4984362;28;20467;-63
2022/07/07 11:36:24;;;;;;;8.83;7.97;;;;;;;14.75;100.00;97471.00;4972692;28;20244;-63
2022/07/07 11:38:53;;;;;;;8.33;7.77;;;;;;;14.79;100.00;97468.75;4983330;28;21458;-60